createdAt,value
2018-12-30T10:40:43.067Z,9.10
2018-12-30T10:43:14.099Z,9.20
2018-12-30T10:45:44.823Z,9.30
2018-12-30T10:48:15.675Z,9.40
2018-12-30T10:50:46.636Z,9.50
2018-12-30T10:53:17.835Z,9.50
2018-12-30T10:55:48.965Z,9.60
2018-12-30T10:58:20.149Z,9.70
2018-12-30T11:01:01.076Z,9.70
2018-12-30T11:03:45.236Z,9.70
2018-12-30T11:06:25.731Z,9.80
2018-12-30T11:09:03.227Z,9.80
2018-12-30T11:11:34.548Z,9.80
2018-12-30T11:14:05.548Z,9.80
2018-12-30T11:16:46.038Z,9.70
2018-12-30T11:19:17.568Z,9.70
2018-12-30T11:21:48.524Z,9.60
2018-12-30T11:24:19.912Z,9.50
2018-12-30T11:26:51.022Z,9.40
2018-12-30T11:29:31.827Z,9.30
2018-12-30T11:32:04.359Z,9.30
2018-12-30T11:34:35.372Z,9.20
2018-12-30T11:37:06.519Z,9.20
2018-12-30T11:39:37.410Z,9.30
2018-12-30T11:42:08.958Z,9.30
2018-12-30T11:44:40.030Z,9.20
2018-12-30T11:47:10.955Z,9.20
2018-12-30T11:49:43.349Z,9.20
2018-12-30T11:52:14.225Z,9.20
2018-12-30T11:54:45.110Z,9.20
2018-12-30T11:57:15.998Z,9.20
2018-12-30T11:59:46.979Z,9.20
2018-12-30T12:02:24.050Z,9.20
2018-12-30T12:04:50.817Z,9.30
2018-12-30T12:07:22.028Z,9.20
2018-12-30T12:09:53.004Z,9.30
2018-12-30T12:12:24.203Z,9.20
2018-12-30T12:14:55.072Z,9.30
2018-12-30T12:17:25.882Z,9.20
2018-12-30T12:19:56.916Z,9.20
2018-12-30T12:22:27.876Z,9.20
2018-12-30T12:24:58.852Z,9.10
2018-12-30T12:27:29.758Z,9.20
2018-12-30T12:30:00.983Z,9.20
2018-12-30T12:32:32.096Z,9.10
2018-12-30T12:35:13.566Z,9.10
2018-12-30T12:37:44.480Z,9.10
2018-12-30T12:40:15.348Z,9.00
2018-12-30T12:42:46.165Z,9.00
2018-12-30T12:45:26.606Z,9.00
2018-12-30T12:47:57.609Z,9.10
2018-12-30T12:50:28.569Z,9.10
2018-12-30T12:53:01.068Z,9.20
2018-12-30T12:55:32.001Z,9.20
2018-12-30T12:58:03.125Z,9.10
2018-12-30T13:00:33.953Z,9.10
2018-12-30T13:03:04.902Z,9.10
2018-12-30T13:05:36.489Z,9.20
2018-12-30T13:08:07.421Z,9.20
2018-12-30T13:10:38.415Z,9.30
2018-12-30T13:13:09.696Z,9.30
2018-12-30T13:15:40.879Z,9.30
2018-12-30T13:18:11.927Z,9.30
2018-12-30T13:20:42.925Z,9.30
2018-12-30T13:23:13.774Z,9.30
2018-12-30T13:25:44.814Z,9.30
2018-12-30T13:28:29.260Z,9.20
2018-12-30T13:31:00.150Z,9.10
2018-12-30T13:33:41.301Z,9.20
2018-12-30T13:36:14.485Z,9.10
2018-12-30T13:38:45.417Z,9.20
2018-12-30T13:41:16.231Z,9.10
2018-12-30T13:43:47.051Z,9.10
2018-12-30T13:46:17.816Z,9.10
2018-12-30T13:48:48.915Z,9.00
2018-12-30T13:51:21.189Z,9.00
2018-12-30T13:53:51.448Z,8.90
2018-12-30T13:56:22.003Z,8.90
2018-12-30T13:58:50.869Z,8.90
2018-12-30T14:01:24.526Z,9.00
2018-12-30T14:03:55.137Z,9.00
2018-12-30T14:06:25.966Z,9.00
2018-12-30T14:08:56.497Z,9.00
2018-12-30T14:11:29.263Z,9.00
2018-12-30T14:14:10.026Z,9.00
2018-12-30T14:16:40.884Z,9.00
2018-12-30T14:19:11.728Z,9.00
2018-12-30T14:21:42.842Z,9.00
2018-12-30T14:24:23.699Z,8.90
2018-12-30T14:26:59.841Z,8.90
2018-12-30T14:29:27.543Z,8.90
2018-12-30T14:31:58.275Z,8.90
2018-12-30T14:34:29.578Z,8.80
2018-12-30T14:37:00.838Z,8.80
2018-12-30T14:39:36.973Z,8.80
2018-12-30T14:42:07.738Z,8.80
2018-12-30T14:44:38.643Z,8.80
2018-12-30T14:47:09.615Z,8.80
2018-12-30T14:49:40.807Z,8.70
2018-12-30T14:52:12.029Z,8.70
2018-12-30T14:54:43.240Z,8.60
2018-12-30T14:57:14.297Z,8.60
2018-12-30T14:59:54.952Z,8.60
2018-12-30T15:02:25.864Z,8.60
2018-12-30T15:04:56.742Z,8.50
2018-12-30T15:07:38.495Z,8.50
2018-12-30T15:10:19.443Z,8.50
2018-12-30T15:13:00.533Z,8.50
2018-12-30T15:15:31.310Z,8.50
2018-12-30T15:18:02.577Z,8.50
2018-12-30T15:20:33.373Z,8.50
2018-12-30T15:23:04.259Z,8.50
2018-12-30T15:25:45.528Z,8.50
2018-12-30T15:28:16.355Z,8.50
2018-12-30T15:30:47.422Z,8.50
2018-12-30T15:33:37.379Z,8.50
2018-12-30T15:36:09.032Z,8.50
2018-12-30T15:38:40.350Z,8.50
2018-12-30T15:41:11.424Z,8.50
2018-12-30T15:43:52.621Z,8.50
2018-12-30T15:46:23.527Z,8.40
2018-12-30T15:48:55.017Z,8.40
2018-12-30T15:51:25.823Z,8.30
2018-12-30T15:53:56.715Z,8.10
2018-12-30T15:56:27.736Z,8.00
2018-12-30T15:58:58.740Z,7.90
2018-12-30T16:01:39.536Z,7.90
2018-12-30T16:04:10.190Z,7.80
2018-12-30T16:06:41.185Z,7.70
2018-12-30T16:09:12.563Z,7.70
2018-12-30T16:11:43.510Z,7.60
2018-12-30T16:14:24.653Z,7.70
2018-12-30T16:16:56.414Z,7.70
2018-12-30T16:19:27.325Z,7.70
2018-12-30T16:22:08.838Z,7.60
2018-12-30T16:24:39.831Z,7.70
2018-12-30T16:27:11.031Z,7.60
2018-12-30T16:29:52.637Z,7.60
2018-12-30T16:32:41.669Z,7.60
2018-12-30T16:35:22.437Z,7.60
2018-12-30T16:37:53.704Z,7.60
2018-12-30T16:40:25.016Z,7.60
2018-12-30T16:43:05.531Z,7.60
2018-12-30T16:45:36.548Z,7.70
2018-12-30T16:48:07.888Z,7.70
2018-12-30T16:50:48.722Z,7.70
2018-12-30T16:53:19.311Z,7.70
2018-12-30T16:55:49.940Z,7.70
2018-12-30T16:58:20.616Z,7.70
2018-12-30T17:00:51.792Z,7.80
2018-12-30T17:03:22.930Z,7.80
2018-12-30T17:06:04.027Z,7.80
2018-12-30T17:08:48.787Z,7.80
2018-12-30T17:11:29.615Z,7.90
2018-12-30T17:14:10.216Z,7.80
2018-12-30T17:16:40.907Z,7.80
2018-12-30T17:19:11.535Z,7.80
2018-12-30T17:21:52.772Z,7.80
2018-12-30T17:24:23.687Z,7.80
2018-12-30T17:26:54.140Z,7.80
2018-12-30T17:29:24.886Z,7.80
2018-12-30T17:31:55.813Z,7.80
2018-12-30T17:34:36.682Z,7.80
2018-12-30T17:37:21.017Z,7.80
2018-12-30T17:40:02.595Z,7.80
2018-12-30T17:42:44.401Z,7.80
2018-12-30T17:45:25.407Z,7.80
2018-12-30T17:47:56.380Z,7.90
2018-12-30T17:50:27.289Z,7.90
2018-12-30T17:52:58.577Z,7.90
2018-12-30T17:55:29.466Z,7.80
2018-12-30T17:58:00.634Z,7.90
2018-12-30T18:00:41.186Z,7.90
2018-12-30T18:03:22.022Z,7.90
2018-12-30T18:06:02.675Z,7.90
2018-12-30T18:08:43.295Z,7.90
2018-12-30T18:11:14.311Z,7.90
2018-12-30T18:13:45.432Z,7.90
2018-12-30T18:16:16.578Z,7.90
2018-12-30T18:18:47.553Z,7.90
2018-12-30T18:21:18.488Z,7.90
2018-12-30T18:23:59.326Z,7.90
2018-12-30T18:26:37.580Z,7.90
2018-12-30T18:29:02.285Z,8.00
2018-12-30T18:31:33.244Z,8.00
2018-12-30T18:34:13.745Z,7.90
2018-12-30T18:36:44.632Z,8.00
2018-12-30T18:39:16.325Z,8.00
2018-12-30T18:41:57.133Z,8.00
2018-12-30T18:44:28.130Z,8.00
2018-12-30T18:46:59.291Z,8.10
2018-12-30T18:49:39.809Z,8.10
2018-12-30T18:52:20.867Z,8.10
2018-12-30T18:54:52.025Z,8.10
2018-12-30T18:57:23.191Z,8.10
2018-12-30T19:00:04.236Z,8.10
2018-12-30T19:02:35.117Z,8.20
2018-12-30T19:05:06.544Z,8.10
2018-12-30T19:07:37.535Z,8.10
2018-12-30T19:10:18.694Z,8.10
2018-12-30T19:12:59.255Z,8.10
2018-12-30T19:15:39.627Z,8.10
2018-12-30T19:18:20.874Z,8.20
2018-12-30T19:21:02.098Z,8.20
2018-12-30T19:23:42.493Z,8.20
2018-12-30T19:26:23.423Z,8.30
2018-12-30T19:28:54.550Z,8.20
2018-12-30T19:31:35.436Z,8.20
2018-12-30T19:34:24.321Z,8.20
2018-12-30T19:37:10.383Z,8.30
2018-12-30T19:39:41.233Z,8.30
2018-12-30T19:42:12.871Z,8.30
2018-12-30T19:44:45.911Z,8.30
2018-12-30T19:47:16.575Z,8.30
2018-12-30T19:49:47.979Z,8.30
2018-12-30T19:52:28.957Z,8.30
2018-12-30T19:55:10.297Z,8.30
2018-12-30T19:57:50.811Z,8.30
2018-12-30T20:00:22.003Z,8.30
2018-12-30T20:02:53.192Z,8.30
2018-12-30T20:05:25.707Z,8.40
2018-12-30T20:08:06.738Z,8.40
2018-12-30T20:10:38.104Z,8.30
2018-12-30T20:13:09.438Z,8.40
2018-12-30T20:15:54.553Z,8.40
2018-12-30T20:18:25.969Z,8.40
2018-12-30T20:21:13.139Z,8.40
2018-12-30T20:23:53.816Z,8.40
2018-12-30T20:26:29.878Z,8.40
2018-12-30T20:28:57.619Z,8.40
2018-12-30T20:31:28.601Z,8.40
2018-12-30T20:33:59.635Z,8.50
2018-12-30T20:36:40.629Z,8.50
2018-12-30T20:39:12.228Z,8.50
2018-12-30T20:41:43.249Z,8.50
2018-12-30T20:44:23.965Z,8.50
2018-12-30T20:46:54.625Z,8.50
2018-12-30T20:49:28.815Z,8.50
2018-12-30T20:52:00.589Z,8.50
2018-12-30T20:54:32.065Z,8.50
2018-12-30T20:57:03.253Z,8.50
2018-12-30T20:59:47.285Z,8.50
2018-12-30T21:02:28.418Z,8.50
2018-12-30T21:04:59.673Z,8.50
2018-12-30T21:07:31.071Z,8.60
2018-12-30T21:10:02.339Z,8.60
2018-12-30T21:12:33.382Z,8.60
2018-12-30T21:15:13.982Z,8.60
2018-12-30T21:17:45.063Z,8.60
2018-12-30T21:20:26.249Z,8.60
2018-12-30T21:22:56.977Z,8.70
2018-12-30T21:25:27.642Z,8.60
2018-12-30T21:27:58.608Z,8.60
2018-12-30T21:30:29.893Z,8.60
2018-12-30T21:33:00.857Z,8.70
2018-12-30T21:35:42.359Z,8.60
2018-12-30T21:38:13.757Z,8.70
2018-12-30T21:40:59.437Z,7.80
2018-12-30T21:43:40.831Z,8.70
2018-12-30T21:46:21.814Z,8.70
2018-12-30T21:49:02.397Z,8.80
2018-12-30T21:51:42.815Z,8.70
2018-12-30T21:54:24.199Z,8.70
2018-12-30T21:56:55.645Z,8.80
2018-12-30T21:59:26.524Z,8.80
2018-12-30T22:02:07.346Z,8.80
2018-12-30T22:04:38.160Z,8.80
2018-12-30T22:07:09.343Z,8.80
2018-12-30T22:09:40.422Z,8.80
2018-12-30T22:12:11.642Z,8.70
2018-12-30T22:14:42.871Z,8.80
2018-12-30T22:17:23.713Z,8.80
2018-12-30T22:20:05.004Z,8.80
2018-12-30T22:22:49.417Z,8.80
2018-12-30T22:25:20.522Z,8.90
2018-12-30T22:28:01.283Z,8.90
2018-12-30T22:30:46.012Z,8.80
2018-12-30T22:33:35.213Z,8.80
2018-12-30T22:36:16.654Z,8.90
2018-12-30T22:38:47.717Z,8.90
2018-12-30T22:41:36.215Z,8.80
2018-12-30T22:44:07.506Z,8.90
2018-12-30T22:46:38.477Z,8.90
2018-12-30T22:49:34.648Z,8.90
2018-12-30T22:52:06.051Z,8.90
2018-12-30T22:54:36.696Z,8.90
2018-12-30T22:57:07.853Z,8.90
2018-12-30T22:59:39.128Z,8.90
2018-12-30T23:02:10.420Z,8.90
2018-12-30T23:04:42.050Z,8.90
2018-12-30T23:07:13.415Z,9.00
2018-12-30T23:09:44.672Z,9.00
2018-12-30T23:12:25.342Z,9.00
2018-12-30T23:15:06.143Z,9.00
2018-12-30T23:17:46.844Z,9.00
2018-12-30T23:20:17.916Z,9.00
2018-12-30T23:22:49.577Z,9.00
2018-12-30T23:25:30.298Z,9.00
2018-12-30T23:28:00.893Z,9.00
2018-12-30T23:30:31.931Z,9.00
2018-12-30T23:33:02.846Z,9.00
2018-12-30T23:35:41.248Z,9.00
2018-12-30T23:38:22.138Z,9.10
2018-12-30T23:41:03.723Z,9.10
2018-12-30T23:43:45.311Z,9.10
2018-12-30T23:46:16.478Z,9.00
2018-12-30T23:48:47.448Z,9.10
2018-12-30T23:51:28.014Z,9.00
2018-12-30T23:54:08.680Z,9.00
2018-12-30T23:56:50.417Z,9.00
2018-12-30T23:59:22.779Z,9.00
